createdAt,value
2023-03-29T20:02:39.879Z,36.35
2023-03-29T20:03:43.862Z,36.48
2023-03-29T20:04:47.752Z,36.42
2023-03-29T20:05:52.358Z,36.12
2023-03-29T20:06:56.566Z,36.55
2023-03-29T20:08:00.291Z,36.57
2023-03-29T20:09:04.033Z,36.58
2023-03-29T20:10:08.676Z,36.44
2023-03-29T20:11:13.919Z,36.59
2023-03-29T20:12:17.601Z,36.50
2023-03-29T20:13:31.478Z,36.53
2023-03-29T20:14:41.636Z,36.46
2023-03-29T20:15:47.311Z,36.62
2023-03-29T20:16:51.414Z,36.64
2023-03-29T20:17:59.277Z,36.57
2023-03-29T20:19:03.687Z,36.64
2023-03-29T20:20:08.963Z,36.67
2023-03-29T20:21:13.726Z,36.69
2023-03-29T20:22:18.902Z,36.70
2023-03-29T20:23:22.494Z,36.67
2023-03-29T20:24:26.531Z,36.46
2023-03-29T20:25:31.319Z,36.74
2023-03-29T20:26:35.196Z,36.71
2023-03-29T20:27:38.818Z,36.71
2023-03-29T20:28:42.492Z,36.58
2023-03-29T20:29:46.226Z,36.66
2023-03-29T20:30:49.948Z,36.56
2023-03-29T20:31:53.590Z,36.66
2023-03-29T20:32:59.045Z,36.56
2023-03-29T20:34:02.792Z,36.60
2023-03-29T20:35:07.209Z,36.42
2023-03-29T20:36:11.304Z,36.45
2023-03-29T20:37:15.105Z,36.43
2023-03-29T20:38:18.765Z,36.05
2023-03-29T20:39:25.048Z,36.20
2023-03-29T20:40:29.454Z,36.41
2023-03-29T20:41:33.296Z,36.44
2023-03-29T20:42:37.035Z,36.46
2023-03-29T20:43:40.763Z,36.45
2023-03-29T20:44:44.382Z,36.46
2023-03-29T20:45:53.508Z,36.34
2023-03-29T20:46:58.604Z,36.31
2023-03-29T20:48:04.127Z,36.38
2023-03-29T20:49:08.220Z,36.40
2023-03-29T20:50:12.253Z,36.41
2023-03-29T20:51:15.924Z,36.42
2023-03-29T20:52:42.724Z,36.43
2023-03-29T20:53:46.601Z,36.40
2023-03-29T20:54:50.874Z,36.42
2023-03-29T20:55:54.568Z,36.43
2023-03-29T20:56:58.293Z,36.43
2023-03-29T20:58:03.135Z,36.43
2023-03-29T20:59:07.996Z,36.38
2023-03-29T21:00:12.454Z,36.36
2023-03-29T21:01:16.153Z,36.32
2023-03-29T21:02:21.810Z,36.34
2023-03-29T21:03:27.467Z,36.34
2023-03-29T21:04:31.283Z,36.23
2023-03-29T21:05:34.972Z,36.24
2023-03-29T21:06:38.784Z,36.25
2023-03-29T21:07:42.549Z,36.17
2023-03-29T21:08:46.353Z,36.22
2023-03-29T21:09:50.140Z,36.23
2023-03-29T21:10:53.808Z,36.18
2023-03-29T21:11:57.499Z,36.22
2023-03-29T21:13:01.260Z,36.18
2023-03-29T21:14:05.043Z,36.05
2023-03-29T21:15:09.921Z,36.05
2023-03-29T21:16:13.715Z,36.09
2023-03-29T21:17:17.368Z,35.51
2023-03-29T21:18:21.017Z,36.13
2023-03-29T21:19:26.441Z,35.85
2023-03-29T21:20:30.177Z,36.17
2023-03-29T21:21:33.906Z,36.11
2023-03-29T21:22:37.908Z,36.11
2023-03-29T21:23:41.608Z,36.05
2023-03-29T21:24:45.508Z,35.84
2023-03-29T21:26:18.134Z,36.05
2023-03-29T21:27:22.123Z,36.07
2023-03-29T21:28:44.403Z,36.13
2023-03-29T21:29:48.143Z,36.01
2023-03-29T21:31:22.138Z,36.01
2023-03-29T21:32:25.994Z,36.02
2023-03-29T21:33:29.728Z,36.00
2023-03-29T21:34:35.152Z,36.01
2023-03-29T21:35:39.290Z,35.88
2023-03-29T21:36:42.953Z,36.03
2023-03-29T21:37:52.613Z,36.00
2023-03-29T21:38:56.420Z,35.94
2023-03-29T21:40:00.165Z,35.91
2023-03-29T21:41:03.988Z,35.88
2023-03-29T21:42:07.810Z,35.94
2023-03-29T21:43:11.451Z,35.91
2023-03-29T21:44:15.154Z,35.57
2023-03-29T21:45:19.158Z,35.95
2023-03-29T21:46:22.869Z,36.00
2023-03-29T21:47:26.682Z,36.00
2023-03-29T21:48:30.358Z,36.02
2023-03-29T21:49:35.998Z,35.98
2023-03-29T21:50:39.683Z,36.02
2023-03-29T21:51:43.548Z,35.96
2023-03-29T21:52:47.320Z,35.98
2023-03-29T21:53:50.979Z,36.01
2023-03-29T21:54:54.841Z,35.83
2023-03-29T21:55:58.605Z,35.73
2023-03-29T21:57:02.539Z,36.00
2023-03-29T21:58:06.380Z,36.03
2023-03-29T21:59:10.316Z,36.04
2023-03-29T22:00:14.834Z,35.95
2023-03-29T22:01:18.590Z,36.04
2023-03-29T22:02:22.357Z,36.05
2023-03-29T22:03:26.254Z,35.96
2023-03-29T22:04:36.916Z,36.02
2023-03-29T22:05:42.917Z,36.01
2023-03-29T22:06:46.544Z,35.93
2023-03-29T22:07:50.254Z,35.94
2023-03-29T22:08:54.116Z,35.97
2023-03-29T22:09:57.833Z,35.96
2023-03-29T22:11:08.147Z,35.97
2023-03-29T22:12:12.416Z,35.73
2023-03-29T22:13:16.099Z,35.99
2023-03-29T22:14:19.843Z,35.92
2023-03-29T22:15:36.013Z,35.88
2023-03-29T22:16:39.727Z,35.97
2023-03-29T22:17:43.509Z,35.64
2023-03-29T22:18:48.389Z,35.94
2023-03-29T22:19:52.140Z,35.94
2023-03-29T22:20:57.755Z,35.92
2023-03-29T22:22:01.660Z,35.90
2023-03-29T22:23:05.518Z,35.60
2023-03-29T22:24:09.275Z,35.43
2023-03-29T22:25:13.425Z,35.89
2023-03-29T22:26:18.648Z,35.89
2023-03-29T22:27:22.787Z,35.92
2023-03-29T22:28:26.490Z,35.89
2023-03-29T22:29:30.202Z,35.83
2023-03-29T22:30:33.889Z,35.88
2023-03-29T22:31:37.575Z,35.90
2023-03-29T22:32:41.478Z,35.88
2023-03-29T22:33:45.813Z,35.92
2023-03-29T22:34:49.572Z,35.89
2023-03-29T22:35:53.310Z,35.93
2023-03-29T22:36:58.701Z,35.87
2023-03-29T22:38:02.334Z,35.93
2023-03-29T22:39:06.290Z,35.82
2023-03-29T22:40:11.859Z,35.95
2023-03-29T22:41:15.970Z,35.95
2023-03-29T22:42:19.679Z,35.94
2023-03-29T22:43:23.355Z,35.93
2023-03-29T22:44:27.094Z,35.97
2023-03-29T22:45:30.745Z,35.84
2023-03-29T22:46:34.829Z,36.00
2023-03-29T22:47:38.790Z,35.99
2023-03-29T22:48:42.802Z,35.79
2023-03-29T22:49:46.474Z,35.99
2023-03-29T22:50:50.118Z,35.94
2023-03-29T22:51:53.892Z,35.90
2023-03-29T22:52:59.343Z,35.87
2023-03-29T22:54:02.958Z,35.82
2023-03-29T22:55:07.490Z,35.88
2023-03-29T22:56:11.208Z,35.89
2023-03-29T22:57:15.009Z,35.90
2023-03-29T22:58:18.740Z,35.90
2023-03-29T22:59:22.606Z,35.91
2023-03-29T23:00:26.353Z,35.89
2023-03-29T23:01:30.000Z,35.89
2023-03-29T23:02:33.939Z,35.87
2023-03-29T23:03:37.885Z,35.82
2023-03-29T23:04:41.652Z,35.90
2023-03-29T23:05:51.201Z,35.90
2023-03-29T23:06:54.842Z,35.88
2023-03-29T23:08:00.538Z,35.91
2023-03-29T23:09:04.471Z,35.85
2023-03-29T23:10:09.276Z,35.88
2023-03-29T23:11:12.950Z,35.88
2023-03-29T23:12:16.604Z,35.86
2023-03-29T23:13:20.604Z,35.87
2023-03-29T23:14:24.256Z,35.90
2023-03-29T23:15:29.634Z,35.76
2023-03-29T23:16:33.448Z,35.86
2023-03-29T23:17:37.404Z,35.43
2023-03-29T23:18:41.325Z,35.85
2023-03-29T23:19:45.012Z,35.90
2023-03-29T23:20:49.286Z,35.84
2023-03-29T23:21:52.935Z,35.88
2023-03-29T23:22:56.695Z,35.93
2023-03-29T23:24:02.113Z,35.93
2023-03-29T23:25:06.330Z,35.92
2023-03-29T23:26:10.059Z,35.88
2023-03-29T23:27:13.813Z,35.88
2023-03-29T23:28:19.117Z,35.56
2023-03-29T23:29:22.854Z,35.86
2023-03-29T23:30:26.502Z,35.86
2023-03-29T23:31:30.172Z,35.88
2023-03-29T23:32:33.867Z,35.87
2023-03-29T23:33:38.767Z,35.85
2023-03-29T23:34:42.910Z,35.82
2023-03-29T23:35:46.599Z,35.84
2023-03-29T23:36:50.353Z,35.84
2023-03-29T23:37:54.005Z,35.81
2023-03-29T23:38:57.870Z,35.86
2023-03-29T23:40:03.266Z,35.87
2023-03-29T23:41:08.595Z,35.86
2023-03-29T23:42:12.388Z,35.79
2023-03-29T23:43:15.986Z,35.84
2023-03-29T23:44:19.712Z,35.83
2023-03-29T23:45:23.487Z,35.73
2023-03-29T23:46:27.277Z,35.79
2023-03-29T23:47:31.086Z,35.74
2023-03-29T23:48:50.184Z,35.86
2023-03-29T23:49:53.934Z,35.87
2023-03-29T23:50:57.832Z,35.82
2023-03-29T23:52:01.514Z,35.85
2023-03-29T23:53:05.222Z,35.90
2023-03-29T23:54:11.647Z,35.92
2023-03-29T23:55:17.049Z,35.95
2023-03-29T23:56:20.906Z,35.97
2023-03-29T23:57:24.988Z,35.99
2023-03-29T23:58:28.895Z,35.94
2023-03-29T23:59:32.590Z,36.01
